Accueil
METAR-TAF:

METAR-TAF

Aéroports :

Mid-Carolina Regional Airport

Salisbury, Caroline du Nord, États-Unis

latitude: 35-39N, longitude: 080-31W, altitude: 236 m

Observation

Le bulletin a été fait il y a 1 heure et 19 minutes, à 14:55 UTC
Vent calme
Température -1°C
Humidité 74%
Pression 1030 hPa
Visibilité: 16.1 km
Nuages épars à une hauteur de 2400 ft
Ciel couvert à une hauteur de 3200 ft

METAR: KRUQ 141455Z AUTO 00000KT 10SM SCT024 OVC032 M01/M05 A3041 RMK AO2 T10091050

Heure: 11:14 (16:14 UTC)


TAF: absent

Observations et prévisions météorologiques de plus de 4000 aéroports (messages METAR et TAF).

Les stations disponibles sont représentées par des disques jaunes et rouges sur la carte.

Passer la souris dessus pour voir le nom de la station.

Cliquer dessus pour voir les observations et prévisions météorologiques.

Pour changer de carte: cliquez sur les boutons verts avec une croix noire pour zoomer, sur le bouton vert avec un tiret pour effectuer un zoom arrière, ou sur les flèches vertes pour les cartes adjacentes.


METAR-TAF: